Time,TemperatureF,DewpointF,PressureIn,WindDirection,WindDirectionDegrees,WindSpeedMPH,WindSpeedGustMPH,Humidity,HourlyPrecipIn,Conditions,Clouds,dailyrainin,SoftwareType,DateUTC
2013-02-24 00:01:00,43.2,33.3,30.22,NW,321,3.0,3.0,68,0.00,,,0.00,meteohub,2013-02-24 08:01:00,
2013-02-24 00:06:00,43.2,33.3,30.22,NNE,23,1.0,10.0,68,0.00,,,0.00,meteohub,2013-02-24 08:06:00,
2013-02-24 00:11:00,43.0,33.1,30.22,NW,304,2.0,6.0,68,0.00,,,0.00,meteohub,2013-02-24 08:11:00,
2013-02-24 00:16:00,43.0,33.1,30.22,NW,326,3.0,6.0,68,0.00,,,0.00,meteohub,2013-02-24 08:16:00,
2013-02-24 00:22:00,43.0,33.4,30.22,NW,317,2.0,6.0,69,0.00,,,0.00,meteohub,2013-02-24 08:22:00,
2013-02-24 00:27:00,43.0,32.7,30.22,NW,319,2.0,7.0,67,0.00,,,0.00,meteohub,2013-02-24 08:27:00,
2013-02-24 00:32:00,43.2,32.2,30.22,NE,52,1.0,7.0,65,0.00,,,0.00,meteohub,2013-02-24 08:32:00,
2013-02-24 00:37:00,43.2,31.5,30.22,NE,39,2.0,6.0,63,0.00,,,0.00,meteohub,2013-02-24 08:37:00,
2013-02-24 00:42:00,43.9,31.3,30.22,NW,321,3.0,6.0,61,0.00,,,0.00,meteohub,2013-02-24 08:42:00,
2013-02-24 00:47:00,43.9,30.9,30.22,NW,315,2.0,5.0,60,0.00,,,0.00,meteohub,2013-02-24 08:47:00,
2013-02-24 00:52:00,43.5,30.6,30.22,North,351,1.0,4.0,60,0.00,,,0.00,meteohub,2013-02-24 08:52:00,
2013-02-24 00:57:00,43.5,30.6,30.22,NNW,328,1.0,4.0,60,0.00,,,0.00,meteohub,2013-02-24 08:57:00,
2013-02-24 01:02:00,43.7,30.7,30.22,West,260,3.0,5.0,60,0.00,,,0.00,meteohub,2013-02-24 09:02:00,
2013-02-24 01:07:00,43.2,31.5,30.22,WNW,286,3.0,5.0,63,0.00,,,0.00,meteohub,2013-02-24 09:07:00,
2013-02-24 01:12:00,43.2,32.2,30.22,NW,307,3.0,7.0,65,0.00,,,0.00,meteohub,2013-02-24 09:12:00,
2013-02-24 01:17:00,43.2,32.5,30.22,NNW,334,5.0,7.0,66,0.00,,,0.00,meteohub,2013-02-24 09:17:00,
2013-02-24 01:22:00,43.2,32.9,30.22,NW,312,4.0,7.0,67,0.00,,,0.00,meteohub,2013-02-24 09:22:00,
2013-02-24 01:27:00,43.3,32.7,30.22,NNW,336,4.0,7.0,66,0.00,,,0.00,meteohub,2013-02-24 09:27:00,
2013-02-24 01:32:00,43.3,32.4,30.22,NNE,17,2.0,9.0,65,0.00,,,0.00,meteohub,2013-02-24 09:32:00,
2013-02-24 01:37:00,43.2,31.8,30.22,NNW,334,0.0,9.0,64,0.00,,,0.00,meteohub,2013-02-24 09:37:00,
2013-02-24 01:42:00,43.0,31.3,30.22,NNE,19,0.0,6.0,63,0.00,,,0.00,meteohub,2013-02-24 09:42:00,
2013-02-24 01:47:00,42.6,30.6,30.22,NE,51,0.0,4.0,62,0.00,,,0.00,meteohub,2013-02-24 09:47:00,
2013-02-24 01:52:00,42.4,29.5,30.22,NE,51,0.0,4.0,60,0.00,,,0.00,meteohub,2013-02-24 09:52:00,
2013-02-24 01:57:00,42.3,30.6,30.22,SW,218,1.0,4.0,63,0.00,,,0.00,meteohub,2013-02-24 09:57:00,
2013-02-24 02:02:00,41.4,31.6,30.22,SSE,158,0.0,2.0,68,0.00,,,0.00,meteohub,2013-02-24 10:02:00,
2013-02-24 02:07:00,40.8,31.1,30.22,SSE,158,1.0,2.0,68,0.00,,,0.00,meteohub,2013-02-24 10:07:00,
2013-02-24 02:12:00,40.3,31.3,30.22,SSE,158,0.0,2.0,70,0.00,,,0.00,meteohub,2013-02-24 10:12:00,
2013-02-24 02:17:00,39.7,31.1,30.22,SE,125,2.0,2.0,71,0.00,,,0.00,meteohub,2013-02-24 10:17:00,
2013-02-24 02:22:00,39.4,30.7,30.21,SE,138,1.0,2.0,71,0.00,,,0.00,meteohub,2013-02-24 10:22:00,
2013-02-24 02:27:00,39.2,30.6,30.21,SE,140,1.0,3.0,71,0.00,,,0.00,meteohub,2013-02-24 10:27:00,
2013-02-24 02:32:00,39.4,30.7,30.21,NNW,329,0.0,3.0,71,0.00,,,0.00,meteohub,2013-02-24 10:32:00,
2013-02-24 02:37:00,39.2,30.6,30.20,NNW,329,0.0,3.0,71,0.00,,,0.00,meteohub,2013-02-24 10:37:00,
2013-02-24 02:43:00,38.8,30.2,30.20,ENE,78,1.0,3.0,71,0.00,,,0.00,meteohub,2013-02-24 10:43:00,
2013-02-24 02:48:00,38.7,30.4,30.20,East,88,0.0,1.0,72,0.00,,,0.00,meteohub,2013-02-24 10:48:00,
2013-02-24 02:53:00,38.1,30.2,30.20,SE,134,2.0,2.0,73,0.00,,,0.00,meteohub,2013-02-24 10:53:00,
2013-02-24 02:58:00,38.1,30.6,30.20,West,272,0.0,2.0,74,0.00,,,0.00,meteohub,2013-02-24 10:58:00,
2013-02-24 03:03:00,38.5,31.3,30.20,NNE,17,3.0,3.0,75,0.00,,,0.00,meteohub,2013-02-24 11:03:00,
2013-02-24 03:08:00,38.5,30.9,30.20,East,101,1.0,4.0,74,0.00,,,0.00,meteohub,2013-02-24 11:08:00,
2013-02-24 03:13:00,38.7,31.1,30.20,East,90,0.0,4.0,74,0.00,,,0.00,meteohub,2013-02-24 11:13:00,
2013-02-24 03:18:00,38.3,30.7,30.20,ENE,71,1.0,2.0,74,0.00,,,0.00,meteohub,2013-02-24 11:18:00,
2013-02-24 03:23:00,37.9,30.7,30.19,ESE,122,0.0,2.0,75,0.00,,,0.00,meteohub,2013-02-24 11:23:00,
2013-02-24 03:28:00,37.8,30.6,30.19,SSE,163,0.0,2.0,75,0.00,,,0.00,meteohub,2013-02-24 11:28:00,
2013-02-24 03:33:00,37.6,30.4,30.19,SW,218,0.0,2.0,75,0.00,,,0.00,meteohub,2013-02-24 11:33:00,
2013-02-24 03:38:00,37.6,30.7,30.19,WSW,244,0.0,2.0,76,0.00,,,0.00,meteohub,2013-02-24 11:38:00,
2013-02-24 03:43:00,37.2,30.0,30.19,WSW,244,0.0,2.0,75,0.00,,,0.00,meteohub,2013-02-24 11:43:00,
2013-02-24 03:48:00,37.6,30.4,30.19,West,269,2.0,2.0,75,0.00,,,0.00,meteohub,2013-02-24 11:48:00,
2013-02-24 03:53:00,37.2,30.4,30.19,North,349,0.0,2.0,76,0.00,,,0.00,meteohub,2013-02-24 11:53:00,
2013-02-24 03:58:00,37.2,30.4,30.19,NW,307,1.0,2.0,76,0.00,,,0.00,meteohub,2013-02-24 11:58:00,
2013-02-24 04:03:00,37.2,30.4,30.19,NW,306,0.0,2.0,76,0.00,,,0.00,meteohub,2013-02-24 12:03:00,
2013-02-24 04:08:00,37.2,30.4,30.19,NW,307,0.0,2.0,76,0.00,,,0.00,meteohub,2013-02-24 12:08:00,
2013-02-24 04:13:00,36.9,30.4,30.19,NW,307,0.0,1.0,77,0.00,,,0.00,meteohub,2013-02-24 12:13:00,
2013-02-24 04:18:00,36.9,30.6,30.19,NW,307,0.0,1.0,78,0.00,,,0.00,meteohub,2013-02-24 12:18:00,
2013-02-24 04:23:00,36.5,30.4,30.19,NW,307,0.0,1.0,78,0.00,,,0.00,meteohub,2013-02-24 12:23:00,
2013-02-24 04:28:00,36.3,30.2,30.19,NW,307,0.0,1.0,78,0.00,,,0.00,meteohub,2013-02-24 12:28:00,
2013-02-24 04:33:00,36.0,30.0,30.19,NW,307,0.0,2.0,79,0.00,,,0.00,meteohub,2013-02-24 12:33:00,
2013-02-24 04:38:00,35.8,30.2,30.19,WSW,257,1.0,2.0,80,0.00,,,0.00,meteohub,2013-02-24 12:38:00,
2013-02-24 04:43:00,35.4,29.8,30.19,WSW,257,0.0,2.0,80,0.00,,,0.00,meteohub,2013-02-24 12:43:00,
2013-02-24 04:48:00,35.2,30.0,30.19,SE,134,1.0,2.0,81,0.00,,,0.00,meteohub,2013-02-24 12:48:00,
2013-02-24 04:54:00,35.2,30.0,30.19,ESE,109,1.0,2.0,81,0.00,,,0.00,meteohub,2013-02-24 12:54:00,
2013-02-24 04:59:00,35.2,30.0,30.19,ESE,109,0.0,2.0,81,0.00,,,0.00,meteohub,2013-02-24 12:59:00,
2013-02-24 05:04:00,35.1,30.2,30.19,SE,125,2.0,2.0,82,0.00,,,0.00,meteohub,2013-02-24 13:04:00,
2013-02-24 05:09:00,35.1,30.2,30.20,WSW,251,1.0,1.0,82,0.00,,,0.00,meteohub,2013-02-24 13:09:00,
2013-02-24 05:14:00,35.1,29.8,30.20,SW,214,0.0,2.0,81,0.00,,,0.00,meteohub,2013-02-24 13:14:00,
2013-02-24 05:19:00,34.7,29.8,30.20,SW,214,1.0,2.0,82,0.00,,,0.00,meteohub,2013-02-24 13:19:00,
2013-02-24 05:24:00,34.7,30.0,30.20,SSW,203,1.0,2.0,83,0.00,,,0.00,meteohub,2013-02-24 13:24:00,
2013-02-24 05:29:00,34.5,29.7,30.20,SSW,203,0.0,2.0,82,0.00,,,0.00,meteohub,2013-02-24 13:29:00,
2013-02-24 05:34:00,34.3,29.7,30.20,SSW,203,0.0,2.0,83,0.00,,,0.00,meteohub,2013-02-24 13:34:00,
2013-02-24 05:39:00,34.3,29.7,30.21,SSW,203,0.0,2.0,83,0.00,,,0.00,meteohub,2013-02-24 13:39:00,
2013-02-24 05:44:00,34.5,29.8,30.21,East,99,1.0,2.0,83,0.00,,,0.00,meteohub,2013-02-24 13:44:00,
2013-02-24 05:49:00,34.7,29.8,30.21,ENE,60,1.0,3.0,82,0.00,,,0.00,meteohub,2013-02-24 13:49:00,
2013-02-24 05:54:00,34.5,29.7,30.21,SSW,206,2.0,3.0,82,0.00,,,0.00,meteohub,2013-02-24 13:54:00,
2013-02-24 05:59:00,34.5,29.7,30.21,SW,232,1.0,3.0,82,0.00,,,0.00,meteohub,2013-02-24 13:59:00,
2013-02-24 06:04:00,34.5,29.7,30.21,ESE,121,1.0,2.0,82,0.00,,,0.00,meteohub,2013-02-24 14:04:00,
2013-02-24 06:09:00,34.5,29.3,30.20,West,271,2.0,2.0,81,0.00,,,0.00,meteohub,2013-02-24 14:09:00,
2013-02-24 06:14:00,34.7,29.8,30.20,SSW,207,1.0,2.0,82,0.00,,,0.00,meteohub,2013-02-24 14:14:00,
2013-02-24 06:19:00,34.5,29.3,30.20,SW,223,1.0,2.0,81,0.00,,,0.00,meteohub,2013-02-24 14:19:00,
2013-02-24 06:24:00,34.2,29.3,30.21,SW,223,0.0,2.0,82,0.00,,,0.00,meteohub,2013-02-24 14:24:00,
2013-02-24 06:29:00,34.2,29.5,30.21,West,276,2.0,2.0,83,0.00,,,0.00,meteohub,2013-02-24 14:29:00,
2013-02-24 06:34:00,34.3,29.5,30.21,WSW,246,1.0,3.0,82,0.00,,,0.00,meteohub,2013-02-24 14:34:00,
2013-02-24 06:39:00,34.5,29.7,30.21,ENE,73,0.0,3.0,82,0.00,,,0.00,meteohub,2013-02-24 14:39:00,
2013-02-24 06:44:00,34.3,29.1,30.21,East,92,1.0,2.0,81,0.00,,,0.00,meteohub,2013-02-24 14:44:00,
2013-02-24 06:49:00,34.3,29.5,30.21,East,92,0.0,3.0,82,0.00,,,0.00,meteohub,2013-02-24 14:49:00,
2013-02-24 06:54:00,34.5,29.3,30.21,East,92,1.0,3.0,81,0.00,,,0.00,meteohub,2013-02-24 14:54:00,
2013-02-24 07:00:00,34.9,29.7,30.21,East,90,1.0,2.0,81,0.00,,,0.00,meteohub,2013-02-24 15:00:00,
2013-02-24 07:05:00,34.9,29.7,30.21,NW,321,0.0,2.0,81,0.00,,,0.00,meteohub,2013-02-24 15:05:00,
2013-02-24 07:10:00,34.9,29.7,30.21,East,96,1.0,2.0,81,0.00,,,0.00,meteohub,2013-02-24 15:10:00,
2013-02-24 07:15:00,35.1,29.8,30.21,NNW,329,0.0,3.0,81,0.00,,,0.00,meteohub,2013-02-24 15:15:00,
2013-02-24 07:20:00,35.4,29.8,30.21,NNE,18,2.0,3.0,80,0.00,,,0.00,meteohub,2013-02-24 15:20:00,
2013-02-24 07:25:00,35.8,30.2,30.21,SW,218,1.0,3.0,80,0.00,,,0.00,meteohub,2013-02-24 15:25:00,
2013-02-24 07:30:00,36.1,30.2,30.21,South,175,1.0,2.0,79,0.00,,,0.00,meteohub,2013-02-24 15:30:00,
2013-02-24 07:35:00,36.7,31.1,30.21,WSW,249,1.0,4.0,80,0.00,,,0.00,meteohub,2013-02-24 15:35:00,
2013-02-24 07:40:00,37.0,30.7,30.21,WNW,294,0.0,4.0,78,0.00,,,0.00,meteohub,2013-02-24 15:40:00,
2013-02-24 07:45:00,37.6,30.7,30.21,NE,35,0.0,4.0,76,0.00,,,0.00,meteohub,2013-02-24 15:45:00,
2013-02-24 07:50:00,38.1,30.9,30.22,ENE,78,1.0,4.0,75,0.00,,,0.00,meteohub,2013-02-24 15:50:00,
2013-02-24 07:55:00,38.7,31.1,30.22,SW,232,1.0,4.0,74,0.00,,,0.00,meteohub,2013-02-24 15:55:00,
2013-02-24 08:00:00,39.0,31.8,30.22,East,83,1.0,3.0,75,0.00,,,0.00,meteohub,2013-02-24 16:00:00,
2013-02-24 08:05:00,39.6,31.6,30.22,SSE,164,0.0,2.0,73,0.00,,,0.00,meteohub,2013-02-24 16:05:00,
2013-02-24 08:10:00,39.7,31.8,30.22,East,99,0.0,2.0,73,0.00,,,0.00,meteohub,2013-02-24 16:10:00,
2013-02-24 08:15:00,40.3,32.4,30.22,East,100,0.0,2.0,73,0.00,,,0.00,meteohub,2013-02-24 16:15:00,
2013-02-24 08:20:00,40.3,32.0,30.22,SW,223,0.0,1.0,72,0.00,,,0.00,meteohub,2013-02-24 16:20:00,
2013-02-24 08:25:00,40.3,32.4,30.22,South,182,1.0,3.0,73,0.00,,,0.00,meteohub,2013-02-24 16:25:00,
2013-02-24 08:30:00,40.5,32.2,30.22,West,260,2.0,3.0,72,0.00,,,0.00,meteohub,2013-02-24 16:30:00,
2013-02-24 08:35:00,41.2,32.2,30.22,West,259,2.0,3.0,70,0.00,,,0.00,meteohub,2013-02-24 16:35:00,
2013-02-24 08:40:00,42.4,32.2,30.22,NNW,329,1.0,3.0,67,0.00,,,0.00,meteohub,2013-02-24 16:40:00,
2013-02-24 08:45:00,44.1,32.7,30.22,NNW,338,0.0,3.0,64,0.00,,,0.00,meteohub,2013-02-24 16:45:00,
2013-02-24 08:50:00,45.0,33.1,30.21,WSW,254,1.0,2.0,63,0.00,,,0.00,meteohub,2013-02-24 16:50:00,
2013-02-24 08:55:00,46.0,32.0,30.21,SSE,149,2.0,2.0,58,0.00,,,0.00,meteohub,2013-02-24 16:55:00,
2013-02-24 09:01:00,47.7,31.8,30.21,SSW,196,1.0,2.0,54,0.00,,,0.00,meteohub,2013-02-24 17:01:00,
2013-02-24 09:06:00,48.7,30.9,30.22,ENE,65,0.0,2.0,50,0.00,,,0.00,meteohub,2013-02-24 17:06:00,
2013-02-24 09:11:00,50.5,29.5,30.22,ENE,65,0.0,2.0,44,0.00,,,0.00,meteohub,2013-02-24 17:11:00,
2013-02-24 09:16:00,51.6,29.3,30.22,SW,227,0.0,2.0,42,0.00,,,0.00,meteohub,2013-02-24 17:16:00,
2013-02-24 09:21:00,52.3,27.5,30.21,NNW,336,1.0,2.0,38,0.00,,,0.00,meteohub,2013-02-24 17:21:00,
2013-02-24 09:26:00,53.2,27.0,30.21,West,275,1.0,3.0,36,0.00,,,0.00,meteohub,2013-02-24 17:26:00,
2013-02-24 09:31:00,53.8,26.1,30.21,SW,217,1.0,5.0,34,0.00,,,0.00,meteohub,2013-02-24 17:31:00,
2013-02-24 09:36:00,54.3,26.6,30.20,NNW,348,1.0,5.0,34,0.00,,,0.00,meteohub,2013-02-24 17:36:00,
2013-02-24 09:41:00,55.0,25.0,30.20,NW,317,4.0,4.0,31,0.00,,,0.00,meteohub,2013-02-24 17:41:00,
2013-02-24 09:46:00,55.2,24.3,30.20,North,350,6.0,9.0,30,0.00,,,0.00,meteohub,2013-02-24 17:46:00,
2013-02-24 09:51:00,55.9,22.5,30.19,NE,39,11.0,13.0,27,0.00,,,0.00,meteohub,2013-02-24 17:51:00,
2013-02-24 09:56:00,56.5,21.0,30.19,NE,55,7.0,17.0,25,0.00,,,0.00,meteohub,2013-02-24 17:56:00,
2013-02-24 10:01:00,56.8,19.4,30.19,ENE,63,17.0,20.0,23,0.00,,,0.00,meteohub,2013-02-24 18:01:00,
2013-02-24 10:06:00,57.0,18.5,30.19,NNW,332,7.0,21.0,22,0.00,,,0.00,meteohub,2013-02-24 18:06:00,
2013-02-24 10:11:00,57.4,18.9,30.19,NNW,340,6.0,21.0,22,0.00,,,0.00,meteohub,2013-02-24 18:11:00,
2013-02-24 10:16:00,57.7,19.2,30.19,North,11,7.0,21.0,22,0.00,,,0.00,meteohub,2013-02-24 18:16:00,
2013-02-24 10:21:00,58.3,19.6,30.18,NNE,18,5.0,19.0,22,0.00,,,0.00,meteohub,2013-02-24 18:21:00,
2013-02-24 10:26:00,58.8,19.0,30.18,ENE,59,7.0,16.0,21,0.00,,,0.00,meteohub,2013-02-24 18:26:00,
2013-02-24 10:31:00,59.2,18.1,30.18,NNW,336,9.0,15.0,20,0.00,,,0.00,meteohub,2013-02-24 18:31:00,
2013-02-24 10:36:00,59.2,18.1,30.18,NW,313,9.0,17.0,20,0.00,,,0.00,meteohub,2013-02-24 18:36:00,
2013-02-24 10:41:00,59.5,17.2,30.18,NE,36,11.0,17.0,19,0.00,,,0.00,meteohub,2013-02-24 18:41:00,
2013-02-24 10:46:00,59.7,18.5,30.18,NNW,336,6.0,16.0,20,0.00,,,0.00,meteohub,2013-02-24 18:46:00,
2013-02-24 10:51:00,59.9,18.7,30.18,NNW,340,7.0,19.0,20,0.00,,,0.00,meteohub,2013-02-24 18:51:00,
2013-02-24 10:56:00,60.4,18.0,30.18,NW,307,3.0,19.0,19,0.00,,,0.00,meteohub,2013-02-24 18:56:00,
2013-02-24 11:01:00,61.2,18.5,30.18,NW,310,10.0,19.0,19,0.00,,,0.00,meteohub,2013-02-24 19:01:00,
2013-02-24 11:07:00,61.5,18.9,30.17,NE,46,6.0,14.0,19,0.00,,,0.00,meteohub,2013-02-24 19:07:00,
2013-02-24 11:12:00,62.1,19.2,30.17,WNW,303,4.0,14.0,19,0.00,,,0.00,meteohub,2013-02-24 19:12:00,
2013-02-24 11:17:00,62.1,19.2,30.17,NW,319,4.0,14.0,19,0.00,,,0.00,meteohub,2013-02-24 19:17:00,
2013-02-24 11:22:00,62.4,19.6,30.17,NE,55,4.0,12.0,19,0.00,,,0.00,meteohub,2013-02-24 19:22:00,
2013-02-24 11:27:00,62.6,22.1,30.17,NW,319,2.0,10.0,21,0.00,,,0.00,meteohub,2013-02-24 19:27:00,
2013-02-24 11:32:00,63.1,18.9,30.17,ENE,78,7.0,10.0,18,0.00,,,0.00,meteohub,2013-02-24 19:32:00,
2013-02-24 11:37:00,63.1,18.9,30.17,WNW,294,3.0,10.0,18,0.00,,,0.00,meteohub,2013-02-24 19:37:00,
2013-02-24 11:42:00,63.3,17.8,30.17,NNE,27,13.0,13.0,17,0.00,,,0.00,meteohub,2013-02-24 19:42:00,
2013-02-24 11:47:00,63.3,16.3,30.17,NE,54,3.0,14.0,16,0.00,,,0.00,meteohub,2013-02-24 19:47:00,
2013-02-24 11:52:00,63.7,18.0,30.16,ENE,73,5.0,14.0,17,0.00,,,0.00,meteohub,2013-02-24 19:52:00,
2013-02-24 11:57:00,63.9,16.7,30.16,ENE,75,6.0,13.0,16,0.00,,,0.00,meteohub,2013-02-24 19:57:00,
2013-02-24 12:02:00,63.9,16.7,30.16,NW,317,6.0,13.0,16,0.00,,,0.00,meteohub,2013-02-24 20:02:00,
2013-02-24 12:07:00,64.0,23.4,30.16,NW,318,6.0,13.0,21,0.00,,,0.00,meteohub,2013-02-24 20:07:00,
2013-02-24 12:12:00,64.4,23.5,30.16,NW,309,2.0,13.0,21,0.00,,,0.00,meteohub,2013-02-24 20:12:00,
2013-02-24 12:17:00,64.6,24.8,30.16,NNW,348,5.0,11.0,22,0.00,,,0.00,meteohub,2013-02-24 20:17:00,
2013-02-24 12:22:00,64.9,22.8,30.15,ENE,59,2.0,7.0,20,0.00,,,0.00,meteohub,2013-02-24 20:22:00,
2013-02-24 12:27:00,65.1,17.8,30.15,North,355,10.0,10.0,16,0.00,,,0.00,meteohub,2013-02-24 20:27:00,
2013-02-24 12:32:00,65.1,16.3,30.15,NW,315,7.0,12.0,15,0.00,,,0.00,meteohub,2013-02-24 20:32:00,
2013-02-24 12:37:00,65.1,16.3,30.14,NE,55,3.0,12.0,15,0.00,,,0.00,meteohub,2013-02-24 20:37:00,
2013-02-24 12:42:00,65.3,14.9,30.14,NE,44,7.0,12.0,14,0.00,,,0.00,meteohub,2013-02-24 20:42:00,
2013-02-24 12:47:00,65.3,14.9,30.14,ENE,63,4.0,11.0,14,0.00,,,0.00,meteohub,2013-02-24 20:47:00,
2013-02-24 12:52:00,65.5,16.5,30.14,NE,47,2.0,11.0,15,0.00,,,0.00,meteohub,2013-02-24 20:52:00,
2013-02-24 12:57:00,66.2,18.7,30.14,North,350,4.0,10.0,16,0.00,,,0.00,meteohub,2013-02-24 20:57:00,
2013-02-24 13:02:00,66.0,15.4,30.14,West,273,1.0,10.0,14,0.00,,,0.00,meteohub,2013-02-24 21:02:00,
2013-02-24 13:07:00,66.6,15.8,30.13,NE,48,2.0,9.0,14,0.00,,,0.00,meteohub,2013-02-24 21:07:00,
2013-02-24 13:12:00,66.2,15.6,30.13,NE,35,2.0,12.0,14,0.00,,,0.00,meteohub,2013-02-24 21:12:00,
2013-02-24 13:18:00,66.4,15.8,30.13,North,350,5.0,12.0,14,0.00,,,0.00,meteohub,2013-02-24 21:18:00,
2013-02-24 13:23:00,66.9,16.2,30.12,WNW,303,2.0,12.0,14,0.00,,,0.00,meteohub,2013-02-24 21:23:00,
2013-02-24 13:28:00,66.7,14.4,30.12,WNW,299,4.0,11.0,13,0.00,,,0.00,meteohub,2013-02-24 21:28:00,
2013-02-24 13:33:00,66.6,15.8,30.12,NNW,334,6.0,11.0,14,0.00,,,0.00,meteohub,2013-02-24 21:33:00,
2013-02-24 13:38:00,66.7,17.6,30.12,NE,34,3.0,13.0,15,0.00,,,0.00,meteohub,2013-02-24 21:38:00,
2013-02-24 13:43:00,66.9,16.2,30.12,NE,52,3.0,13.0,14,0.00,,,0.00,meteohub,2013-02-24 21:43:00,
2013-02-24 13:48:00,67.6,16.7,30.12,NNW,329,4.0,11.0,14,0.00,,,0.00,meteohub,2013-02-24 21:48:00,
2013-02-24 13:53:00,67.6,16.7,30.11,NW,322,3.0,12.0,14,0.00,,,0.00,meteohub,2013-02-24 21:53:00,
2013-02-24 13:58:00,68.2,18.7,30.11,WNW,290,5.0,12.0,15,0.00,,,0.00,meteohub,2013-02-24 21:58:00,
2013-02-24 14:03:00,67.8,16.9,30.11,West,271,3.0,9.0,14,0.00,,,0.00,meteohub,2013-02-24 22:03:00,
2013-02-24 14:08:00,68.0,17.1,30.11,SW,227,1.0,9.0,14,0.00,,,0.00,meteohub,2013-02-24 22:08:00,
2013-02-24 14:13:00,68.4,18.9,30.11,NNW,345,4.0,8.0,15,0.00,,,0.00,meteohub,2013-02-24 22:13:00,
2013-02-24 14:18:00,68.4,18.9,30.11,SE,138,3.0,7.0,15,0.00,,,0.00,meteohub,2013-02-24 22:18:00,
2013-02-24 14:23:00,67.1,32.9,30.11,SW,218,10.0,10.0,28,0.00,,,0.00,meteohub,2013-02-24 22:23:00,
2013-02-24 14:28:00,66.4,32.4,30.11,SSW,201,7.0,12.0,28,0.00,,,0.00,meteohub,2013-02-24 22:28:00,
2013-02-24 14:33:00,65.8,32.7,30.11,SW,229,2.0,13.0,29,0.00,,,0.00,meteohub,2013-02-24 22:33:00,
2013-02-24 14:38:00,66.0,32.9,30.11,South,187,7.0,13.0,29,0.00,,,0.00,meteohub,2013-02-24 22:38:00,
2013-02-24 14:43:00,65.3,33.1,30.11,South,187,4.0,13.0,30,0.00,,,0.00,meteohub,2013-02-24 22:43:00,
2013-02-24 14:48:00,65.1,34.5,30.11,SW,222,10.0,13.0,32,0.00,,,0.00,meteohub,2013-02-24 22:48:00,
2013-02-24 14:53:00,64.2,35.2,30.11,SW,223,5.0,13.0,34,0.00,,,0.00,meteohub,2013-02-24 22:53:00,
2013-02-24 14:58:00,64.0,32.0,30.11,SSW,202,9.0,13.0,30,0.00,,,0.00,meteohub,2013-02-24 22:58:00,
2013-02-24 15:03:00,64.0,32.7,30.11,WSW,245,5.0,13.0,31,0.00,,,0.00,meteohub,2013-02-24 23:03:00,
2013-02-24 15:08:00,64.0,32.0,30.11,SSW,211,3.0,13.0,30,0.00,,,0.00,meteohub,2013-02-24 23:08:00,
2013-02-24 15:13:00,64.2,31.3,30.11,SE,136,6.0,12.0,29,0.00,,,0.00,meteohub,2013-02-24 23:13:00,
2013-02-24 15:18:00,64.2,30.4,30.11,SW,221,5.0,11.0,28,0.00,,,0.00,meteohub,2013-02-24 23:18:00,
2013-02-24 15:23:00,64.4,31.5,30.11,WSW,242,4.0,11.0,29,0.00,,,0.00,meteohub,2013-02-24 23:23:00,
2013-02-24 15:28:00,64.2,32.2,30.11,WSW,249,1.0,9.0,30,0.00,,,0.00,meteohub,2013-02-24 23:28:00,
2013-02-24 15:33:00,64.2,32.2,30.11,SW,232,6.0,9.0,30,0.00,,,0.00,meteohub,2013-02-24 23:33:00,
2013-02-24 15:39:00,63.7,30.0,30.11,WSW,238,2.0,10.0,28,0.00,,,0.00,meteohub,2013-02-24 23:39:00,
2013-02-24 15:44:00,63.9,31.8,30.11,WSW,250,5.0,10.0,30,0.00,,,0.00,meteohub,2013-02-24 23:44:00,
2013-02-24 15:49:00,63.7,32.5,30.11,West,265,4.0,10.0,31,0.00,,,0.00,meteohub,2013-02-24 23:49:00,
2013-02-24 15:54:00,63.3,32.9,30.11,SSW,205,4.0,9.0,32,0.00,,,0.00,meteohub,2013-02-24 23:54:00,
2013-02-24 15:59:00,63.1,32.7,30.11,West,276,1.0,9.0,32,0.00,,,0.00,meteohub,2013-02-24 23:59:00,
2013-02-24 16:04:00,63.3,33.8,30.11,South,180,1.0,9.0,33,0.00,,,0.00,meteohub,2013-02-25 00:04:00,
2013-02-24 16:09:00,63.1,33.6,30.12,SW,227,3.0,9.0,33,0.00,,,0.00,meteohub,2013-02-25 00:09:00,
2013-02-24 16:14:00,62.8,33.3,30.12,WSW,252,3.0,7.0,33,0.00,,,0.00,meteohub,2013-02-25 00:14:00,
2013-02-24 16:19:00,62.2,33.4,30.12,SSW,197,3.0,7.0,34,0.00,,,0.00,meteohub,2013-02-25 00:19:00,
2013-02-24 16:24:00,61.9,32.5,30.12,WSW,255,2.0,9.0,33,0.00,,,0.00,meteohub,2013-02-25 00:24:00,
2013-02-24 16:29:00,61.7,33.1,30.12,South,178,4.0,10.0,34,0.00,,,0.00,meteohub,2013-02-25 00:29:00,
2013-02-24 16:34:00,61.3,32.7,30.12,SW,229,3.0,10.0,34,0.00,,,0.00,meteohub,2013-02-25 00:34:00,
2013-02-24 16:39:00,61.2,33.3,30.12,West,260,2.0,7.0,35,0.00,,,0.00,meteohub,2013-02-25 00:39:00,
2013-02-24 16:44:00,61.2,34.0,30.12,WSW,242,1.0,7.0,36,0.00,,,0.00,meteohub,2013-02-25 00:44:00,
2013-02-24 16:49:00,61.9,32.5,30.12,SW,219,4.0,4.0,33,0.00,,,0.00,meteohub,2013-02-25 00:49:00,
2013-02-24 16:54:00,61.5,32.9,30.12,WSW,258,3.0,5.0,34,0.00,,,0.00,meteohub,2013-02-25 00:54:00,
2013-02-24 16:59:00,61.5,34.3,30.12,West,259,1.0,5.0,36,0.00,,,0.00,meteohub,2013-02-25 00:59:00,
2013-02-24 17:04:00,61.3,34.2,30.12,West,276,2.0,5.0,36,0.00,,,0.00,meteohub,2013-02-25 01:04:00,
2013-02-24 17:09:00,61.0,33.8,30.11,West,271,2.0,3.0,36,0.00,,,0.00,meteohub,2013-02-25 01:09:00,
2013-02-24 17:14:00,60.3,33.8,30.11,West,265,0.0,3.0,37,0.00,,,0.00,meteohub,2013-02-25 01:14:00,
2013-02-24 17:19:00,60.1,33.8,30.11,West,271,1.0,3.0,37,0.00,,,0.00,meteohub,2013-02-25 01:19:00,
2013-02-24 17:24:00,59.7,32.7,30.11,West,275,0.0,3.0,36,0.00,,,0.00,meteohub,2013-02-25 01:24:00,
2013-02-24 17:29:00,59.5,33.3,30.11,West,275,0.0,3.0,37,0.00,,,0.00,meteohub,2013-02-25 01:29:00,
2013-02-24 17:34:00,59.4,32.4,30.11,West,275,0.0,3.0,36,0.00,,,0.00,meteohub,2013-02-25 01:34:00,
2013-02-24 17:39:00,59.2,32.9,30.10,West,275,0.0,1.0,37,0.00,,,0.00,meteohub,2013-02-25 01:39:00,
2013-02-24 17:44:00,59.2,33.6,30.10,West,275,0.0,1.0,38,0.00,,,0.00,meteohub,2013-02-25 01:44:00,
2013-02-24 17:49:00,58.8,33.3,30.10,West,275,0.0,1.0,38,0.00,,,0.00,meteohub,2013-02-25 01:49:00,
2013-02-24 17:54:00,58.3,34.0,30.10,West,275,0.0,1.0,40,0.00,,,0.00,meteohub,2013-02-25 01:54:00,
2013-02-24 18:00:00,57.7,34.2,30.10,West,275,0.0,1.0,41,0.00,,,0.00,meteohub,2013-02-25 02:00:00,
2013-02-24 18:05:00,57.0,34.7,30.10,West,275,1.0,1.0,43,0.00,,,0.00,meteohub,2013-02-25 02:05:00,
2013-02-24 18:10:00,56.5,35.4,30.11,West,275,0.0,1.0,45,0.00,,,0.00,meteohub,2013-02-25 02:10:00,
2013-02-24 18:15:00,55.6,35.6,30.11,West,275,0.0,1.0,47,0.00,,,0.00,meteohub,2013-02-25 02:15:00,
2013-02-24 18:20:00,55.0,35.8,30.11,West,275,1.0,1.0,48,0.00,,,0.00,meteohub,2013-02-25 02:20:00,
2013-02-24 18:25:00,54.7,35.4,30.11,NNW,342,0.0,2.0,48,0.00,,,0.00,meteohub,2013-02-25 02:25:00,
2013-02-24 18:30:00,54.1,34.9,30.11,NNW,343,1.0,2.0,48,0.00,,,0.00,meteohub,2013-02-25 02:30:00,
2013-02-24 18:35:00,53.6,34.3,30.12,NNE,16,0.0,2.0,48,0.00,,,0.00,meteohub,2013-02-25 02:35:00,
2013-02-24 18:40:00,53.1,34.9,30.12,NNE,16,1.0,2.0,50,0.00,,,0.00,meteohub,2013-02-25 02:40:00,
2013-02-24 18:45:00,52.9,34.7,30.12,NNE,13,1.0,2.0,50,0.00,,,0.00,meteohub,2013-02-25 02:45:00,
2013-02-24 18:50:00,52.5,34.3,30.12,NNE,14,1.0,1.0,50,0.00,,,0.00,meteohub,2013-02-25 02:50:00,
2013-02-24 18:55:00,52.2,34.5,30.12,NNE,15,0.0,2.0,51,0.00,,,0.00,meteohub,2013-02-25 02:55:00,
2013-02-24 19:00:00,51.6,35.1,30.12,NNE,15,1.0,2.0,53,0.00,,,0.00,meteohub,2013-02-25 03:00:00,
2013-02-24 19:05:00,51.3,35.6,30.13,NNE,15,0.0,2.0,55,0.00,,,0.00,meteohub,2013-02-25 03:05:00,
2013-02-24 19:10:00,50.5,36.3,30.13,NNE,15,0.0,1.0,58,0.00,,,0.00,meteohub,2013-02-25 03:10:00,
2013-02-24 19:15:00,50.0,36.3,30.13,NNE,15,0.0,1.0,59,0.00,,,0.00,meteohub,2013-02-25 03:15:00,
2013-02-24 19:20:00,49.5,36.1,30.13,NNE,15,1.0,1.0,60,0.00,,,0.00,meteohub,2013-02-25 03:20:00,
2013-02-24 19:25:00,49.3,36.3,30.13,North,0,1.0,1.0,61,0.00,,,0.00,meteohub,2013-02-25 03:25:00,
2013-02-24 19:30:00,48.7,36.0,30.13,North,0,0.0,2.0,61,0.00,,,0.00,meteohub,2013-02-25 03:30:00,
2013-02-24 19:35:00,48.4,36.0,30.14,North,0,0.0,2.0,62,0.00,,,0.00,meteohub,2013-02-25 03:35:00,
2013-02-24 19:40:00,48.0,36.0,30.14,North,355,1.0,1.0,63,0.00,,,0.00,meteohub,2013-02-25 03:40:00,
2013-02-24 19:45:00,47.7,36.1,30.14,North,355,0.0,1.0,64,0.00,,,0.00,meteohub,2013-02-25 03:45:00,
2013-02-24 19:51:00,46.9,35.8,30.14,North,355,0.0,1.0,65,0.00,,,0.00,meteohub,2013-02-25 03:51:00,
2013-02-24 19:56:00,46.8,36.0,30.14,North,0,0.0,1.0,66,0.00,,,0.00,meteohub,2013-02-25 03:56:00,
2013-02-24 20:02:00,46.4,36.0,30.14,North,355,0.0,1.0,67,0.00,,,0.00,meteohub,2013-02-25 04:02:00,
2013-02-24 20:07:00,45.9,35.6,30.14,North,355,0.0,6.0,67,0.00,,,0.00,meteohub,2013-02-25 04:07:00,
2013-02-24 20:12:00,45.7,35.8,30.14,North,355,1.0,4.0,68,0.00,,,0.00,meteohub,2013-02-25 04:12:00,
2013-02-24 20:18:00,45.7,36.1,30.14,North,355,0.0,5.0,69,0.00,,,0.00,meteohub,2013-02-25 04:18:00,
2013-02-24 20:23:00,45.5,36.0,30.14,North,0,0.0,5.0,69,0.00,,,0.00,meteohub,2013-02-25 04:23:00,
2013-02-24 20:28:00,45.1,35.6,30.14,North,0,0.0,3.0,69,0.00,,,0.00,meteohub,2013-02-25 04:28:00,
2013-02-24 20:33:00,45.1,35.6,30.14,North,0,0.0,3.0,69,0.00,,,0.00,meteohub,2013-02-25 04:33:00,
2013-02-24 20:38:00,45.0,35.4,30.14,North,0,0.0,3.0,69,0.00,,,0.00,meteohub,2013-02-25 04:38:00,
2013-02-24 20:43:00,44.6,35.4,30.14,North,355,0.0,3.0,70,0.00,,,0.00,meteohub,2013-02-25 04:43:00,
2013-02-24 20:48:00,44.2,35.4,30.14,North,355,0.0,3.0,71,0.00,,,0.00,meteohub,2013-02-25 04:48:00,
2013-02-24 20:53:00,44.2,35.4,30.14,WNW,294,1.0,3.0,71,0.00,,,0.00,meteohub,2013-02-25 04:53:00,
2013-02-24 20:58:00,44.1,35.2,30.14,WNW,295,0.0,1.0,71,0.00,,,0.00,meteohub,2013-02-25 04:58:00,
2013-02-24 21:00:00,44.1,35.2,30.14,WNW,294,0.0,1.0,71,0.00,,,0.00,meteohub,2013-02-25 05:00:00,
2013-02-24 21:01:00,44.1,35.2,30.14,WNW,295,0.0,1.0,71,0.00,,,0.00,meteohub,2013-02-25 05:01:00,
2013-02-24 21:04:00,43.9,35.1,30.14,WNW,295,1.0,1.0,71,0.00,,,0.00,meteohub,2013-02-25 05:04:00,
2013-02-24 21:10:00,43.9,35.4,30.15,WNW,296,0.0,1.0,72,0.00,,,0.00,meteohub,2013-02-25 05:10:00,
2013-02-24 21:15:00,43.7,35.2,30.15,WNW,296,0.0,1.0,72,0.00,,,0.00,meteohub,2013-02-25 05:15:00,
2013-02-24 21:20:00,43.5,35.1,30.15,WNW,295,0.0,1.0,72,0.00,,,0.00,meteohub,2013-02-25 05:20:00,
2013-02-24 21:25:00,43.5,35.1,30.15,WNW,295,0.0,1.0,72,0.00,,,0.00,meteohub,2013-02-25 05:25:00,
2013-02-24 21:30:00,43.3,35.2,30.15,WNW,294,0.0,1.0,73,0.00,,,0.00,meteohub,2013-02-25 05:30:00,
2013-02-24 21:35:00,43.2,34.7,30.16,WNW,294,0.0,1.0,72,0.00,,,0.00,meteohub,2013-02-25 05:35:00,
2013-02-24 21:40:00,42.8,34.7,30.16,WNW,295,0.0,1.0,73,0.00,,,0.00,meteohub,2013-02-25 05:40:00,
2013-02-24 21:45:00,42.8,35.1,30.16,WNW,294,0.0,2.0,74,0.00,,,0.00,meteohub,2013-02-25 05:45:00,
2013-02-24 21:50:00,42.6,34.9,30.16,WNW,294,0.0,2.0,74,0.00,,,0.00,meteohub,2013-02-25 05:50:00,
2013-02-24 21:55:00,42.4,34.7,30.16,WNW,295,0.0,2.0,74,0.00,,,0.00,meteohub,2013-02-25 05:55:00,
2013-02-24 22:00:00,42.1,34.3,30.16,WNW,294,0.0,2.0,74,0.00,,,0.00,meteohub,2013-02-25 06:00:00,
2013-02-24 22:05:00,41.7,34.7,30.16,WNW,294,0.0,2.0,76,0.00,,,0.00,meteohub,2013-02-25 06:05:00,
2013-02-24 22:10:00,41.5,34.9,30.16,WNW,295,0.0,1.0,77,0.00,,,0.00,meteohub,2013-02-25 06:10:00,
2013-02-24 22:15:00,41.4,34.7,30.16,WNW,294,0.0,2.0,77,0.00,,,0.00,meteohub,2013-02-25 06:15:00,
2013-02-24 22:20:00,41.2,34.5,30.17,WNW,294,0.0,2.0,77,0.00,,,0.00,meteohub,2013-02-25 06:20:00,
2013-02-24 22:25:00,41.2,34.9,30.17,WNW,295,0.0,2.0,78,0.00,,,0.00,meteohub,2013-02-25 06:25:00,
2013-02-24 22:30:00,41.2,34.5,30.17,WNW,294,0.0,1.0,77,0.00,,,0.00,meteohub,2013-02-25 06:30:00,
2013-02-24 22:36:00,40.8,34.2,30.17,WNW,294,0.0,1.0,77,0.00,,,0.00,meteohub,2013-02-25 06:36:00,
2013-02-24 22:41:00,40.6,34.0,30.17,WNW,294,0.0,1.0,77,0.00,,,0.00,meteohub,2013-02-25 06:41:00,
2013-02-24 22:46:00,40.3,34.3,30.17,WNW,294,0.0,2.0,79,0.00,,,0.00,meteohub,2013-02-25 06:46:00,
2013-02-24 22:51:00,40.3,34.3,30.17,WNW,296,0.0,2.0,79,0.00,,,0.00,meteohub,2013-02-25 06:51:00,
2013-02-24 22:56:00,40.5,34.5,30.17,NNW,336,0.0,2.0,79,0.00,,,0.00,meteohub,2013-02-25 06:56:00,
2013-02-24 23:01:00,40.5,34.5,30.17,NNW,334,1.0,1.0,79,0.00,,,0.00,meteohub,2013-02-25 07:01:00,
2013-02-24 23:06:00,40.3,34.3,30.18,NNW,333,1.0,1.0,79,0.00,,,0.00,meteohub,2013-02-25 07:06:00,
2013-02-24 23:11:00,40.3,34.3,30.18,NNW,334,0.0,1.0,79,0.00,,,0.00,meteohub,2013-02-25 07:11:00,
2013-02-24 23:16:00,39.9,34.3,30.18,NNW,333,0.0,1.0,80,0.00,,,0.00,meteohub,2013-02-25 07:16:00,
2013-02-24 23:22:00,39.7,34.2,30.19,NNW,334,0.0,1.0,80,0.00,,,0.00,meteohub,2013-02-25 07:22:00,
2013-02-24 23:28:00,39.7,34.3,30.19,NNW,333,0.0,2.0,81,0.00,,,0.00,meteohub,2013-02-25 07:28:00,
2013-02-24 23:33:00,39.7,34.2,30.19,NNW,334,0.0,2.0,80,0.00,,,0.00,meteohub,2013-02-25 07:33:00,
2013-02-24 23:38:00,39.6,34.0,30.19,NNW,334,0.0,1.0,80,0.00,,,0.00,meteohub,2013-02-25 07:38:00,
2013-02-24 23:43:00,39.4,34.0,30.19,NNW,334,0.0,1.0,81,0.00,,,0.00,meteohub,2013-02-25 07:43:00,
2013-02-24 23:48:00,39.0,33.6,30.19,NNW,334,0.0,1.0,81,0.00,,,0.00,meteohub,2013-02-25 07:48:00,
2013-02-24 23:53:00,38.8,33.4,30.19,NNW,333,0.0,1.0,81,0.00,,,0.00,meteohub,2013-02-25 07:53:00,
2013-02-24 23:58:00,38.8,33.8,30.19,NNW,344,0.0,1.0,82,0.00,,,0.00,meteohub,2013-02-25 07:58:00,